Pittsburgh, Pennsylvania
Traffic Map
Current Weather Conditions
Pittsburgh, Pennsylvania
Few Clouds Haze
Few Clouds
17°
Feels Like: 17°
Wind Chill: 17° Ceiling: Unl
Heat Index: 17° Visibility: 3mi
Dew Point: 16° Wind: 7mph
Humidity: 93% Direction: 160° (SSE)
Pressure: 30.02in Gusts: 0mph
Raw Report DataKAGC 301053Z 16006KT 3SM BR FEW060 17/16 A3002 RMK AO2 SLP165 T01670156
Traffic Incident Summary
Active as of:
Severity:
Category:
InformationThere was an issue retrieving the traffic information for this location. Please try a different location or try again shortly.
Advertisements
Track Severe Weather on mobile